createdAt,value
2018-11-12T00:01:27.441Z,-1.04
2018-11-12T00:04:03.320Z,-0.98
2018-11-12T00:06:39.158Z,-1.07
2018-11-12T00:09:15.008Z,-1.18
2018-11-12T00:11:50.792Z,-1.35
2018-11-12T00:14:26.709Z,-1.47
2018-11-12T00:17:02.594Z,-1.01
2018-11-12T00:19:38.417Z,-0.77
2018-11-12T00:22:14.213Z,-0.59
2018-11-12T00:24:50.179Z,-0.45
2018-11-12T00:27:26.000Z,-0.28
2018-11-12T00:30:01.729Z,-0.46
2018-11-12T00:32:37.484Z,-0.22
2018-11-12T00:35:15.364Z,-0.08
2018-11-12T00:37:51.136Z,-0.41
2018-11-12T00:40:27.009Z,-1.45
2018-11-12T00:43:02.911Z,-1.86
2018-11-12T00:45:38.680Z,-1.94
2018-11-12T00:48:14.542Z,-2.09
2018-11-12T00:50:50.480Z,-2.11
2018-11-12T00:53:26.330Z,-2.03
2018-11-12T00:56:02.225Z,-2.07
2018-11-12T00:58:38.187Z,-1.62
2018-11-12T01:01:14.106Z,-1.24
2018-11-12T01:03:49.844Z,-0.89
2018-11-12T01:06:25.818Z,-0.78
2018-11-12T01:09:01.621Z,-0.77
2018-11-12T01:11:37.600Z,-0.91
2018-11-12T01:14:13.361Z,-1.23
2018-11-12T01:16:49.232Z,-1.56
2018-11-12T01:19:25.174Z,-1.54
2018-11-12T01:22:01.138Z,-1.49
2018-11-12T01:24:36.980Z,-1.26
2018-11-12T01:27:13.351Z,-1.31
2018-11-12T01:29:49.185Z,-1.43
2018-11-12T01:32:25.084Z,-1.36
2018-11-12T01:35:00.949Z,-1.11
2018-11-12T01:37:36.724Z,-1.15
2018-11-12T01:40:13.527Z,-1.04
2018-11-12T01:42:49.235Z,-1.44
2018-11-12T01:45:25.093Z,-1.78
2018-11-12T01:48:00.918Z,-1.60
2018-11-12T01:50:36.708Z,-1.60
2018-11-12T01:53:12.499Z,-1.56
2018-11-12T01:55:48.446Z,-1.72
2018-11-12T01:58:24.390Z,-1.38
2018-11-12T02:01:00.314Z,-1.13
2018-11-12T02:03:36.184Z,-1.13
2018-11-12T02:06:12.144Z,-1.70
2018-11-12T02:08:48.116Z,-1.97
2018-11-12T02:11:24.100Z,-1.66
2018-11-12T02:14:00.081Z,-1.68
2018-11-12T02:16:35.852Z,-1.52
2018-11-12T02:19:11.729Z,-1.28
2018-11-12T02:21:47.464Z,-1.49
2018-11-12T02:24:23.254Z,-1.66
2018-11-12T02:26:59.070Z,-2.10
2018-11-12T02:29:35.112Z,-2.03
2018-11-12T02:32:10.993Z,-2.12
2018-11-12T02:34:46.809Z,-1.79
2018-11-12T02:37:22.659Z,-1.71
2018-11-12T02:39:58.420Z,-1.70
2018-11-12T02:42:34.319Z,-1.78
2018-11-12T02:45:11.161Z,-1.89
2018-11-12T02:47:46.872Z,-1.74
2018-11-12T02:50:22.733Z,-1.62
2018-11-12T02:52:58.582Z,-1.39
2018-11-12T02:55:34.356Z,-1.20
2018-11-12T02:58:10.168Z,-1.43
2018-11-12T03:00:46.056Z,-2.15
2018-11-12T03:03:21.968Z,-2.56
2018-11-12T03:05:57.741Z,-2.48
2018-11-12T03:08:33.478Z,-2.15
2018-11-12T03:11:09.329Z,-2.63
2018-11-12T03:13:45.163Z,-2.39
2018-11-12T03:16:20.957Z,-2.31
2018-11-12T03:18:56.759Z,-2.28
2018-11-12T03:21:32.742Z,-2.37
2018-11-12T03:24:09.044Z,-2.58
2018-11-12T03:26:44.802Z,-2.25
2018-11-12T03:29:20.614Z,-1.85
2018-11-12T03:31:56.486Z,-1.63
2018-11-12T03:34:32.361Z,-1.56
2018-11-12T03:37:08.512Z,-1.46
2018-11-12T03:39:44.297Z,-2.10
2018-11-12T03:42:20.227Z,-2.01
2018-11-12T03:44:55.895Z,-1.85
2018-11-12T03:47:31.860Z,-2.14
2018-11-12T03:50:10.011Z,-2.08
2018-11-12T03:52:46.094Z,-2.56
2018-11-12T03:55:22.846Z,-2.38
2018-11-12T03:57:58.770Z,-3.00
2018-11-12T04:00:34.653Z,-2.97
2018-11-12T04:03:10.489Z,-2.67
2018-11-12T04:05:46.319Z,-2.97
2018-11-12T04:08:22.179Z,-3.10
2018-11-12T04:10:57.980Z,-3.39
2018-11-12T04:13:33.813Z,-2.91
2018-11-12T04:16:09.664Z,-3.22
2018-11-12T04:18:45.568Z,-3.04
2018-11-12T04:21:21.526Z,-2.78
2018-11-12T04:23:57.408Z,-2.72
2018-11-12T04:26:33.199Z,-2.42
2018-11-12T04:29:08.969Z,-2.46
2018-11-12T04:31:44.772Z,-2.74
2018-11-12T04:34:20.902Z,-2.83
2018-11-12T04:36:56.666Z,-3.09
2018-11-12T04:39:32.586Z,-3.05
2018-11-12T04:42:08.415Z,-3.12
2018-11-12T04:44:44.355Z,-2.34
2018-11-12T04:47:20.384Z,-2.37
2018-11-12T04:49:56.602Z,-2.82
2018-11-12T04:52:33.185Z,-2.34
2018-11-12T04:55:10.284Z,-2.08
2018-11-12T04:57:46.866Z,-2.36
2018-11-12T05:00:24.373Z,-2.71
2018-11-12T05:03:00.196Z,-3.09
2018-11-12T05:05:35.943Z,-3.64
2018-11-12T05:08:11.792Z,-3.95
2018-11-12T05:10:47.895Z,-3.73
2018-11-12T05:13:23.758Z,-3.22
2018-11-12T05:15:59.747Z,-3.43
2018-11-12T05:18:35.617Z,-3.13
2018-11-12T05:21:11.530Z,-2.68
2018-11-12T05:23:47.439Z,-2.43
2018-11-12T05:26:23.354Z,-2.24
2018-11-12T05:28:59.320Z,-2.12
2018-11-12T05:31:35.410Z,-1.96
2018-11-12T05:34:11.300Z,-1.86
2018-11-12T05:36:47.624Z,-3.00
2018-11-12T05:39:23.446Z,-3.34
2018-11-12T05:41:59.421Z,-3.84
2018-11-12T05:44:35.313Z,-3.93
2018-11-12T05:47:11.287Z,-4.01
2018-11-12T05:49:47.155Z,-3.72
2018-11-12T05:52:23.172Z,-3.87
2018-11-12T05:54:59.193Z,-3.64
2018-11-12T05:57:35.019Z,-3.22
2018-11-12T06:00:12.380Z,-2.74
2018-11-12T06:02:48.173Z,-1.96
2018-11-12T06:05:23.910Z,-1.41
2018-11-12T06:08:02.844Z,-1.68
2018-11-12T06:10:38.575Z,-1.52
2018-11-12T06:13:14.561Z,-2.07
2018-11-12T06:15:50.329Z,-2.66
2018-11-12T06:18:26.231Z,-2.30
2018-11-12T06:22:26.536Z,-2.47
2018-11-12T06:25:02.498Z,-1.80
2018-11-12T06:27:38.509Z,-1.18
2018-11-12T06:30:16.232Z,-0.90
2018-11-12T06:32:51.931Z,-0.54
2018-11-12T06:35:27.824Z,-0.27
2018-11-12T06:38:04.017Z,-0.02
2018-11-12T06:40:39.620Z,-0.05
2018-11-12T06:43:21.605Z,0.08
2018-11-12T06:45:57.390Z,-0.10
2018-11-12T06:48:33.069Z,0.33
2018-11-12T06:51:08.894Z,0.70
2018-11-12T06:53:44.884Z,0.96
2018-11-12T06:56:20.997Z,1.13
2018-11-12T06:58:56.898Z,1.23
2018-11-12T07:01:33.233Z,0.84
2018-11-12T07:04:09.155Z,0.65
2018-11-12T07:07:06.625Z,1.13
2018-11-12T07:09:42.577Z,1.62
2018-11-12T07:12:18.465Z,1.93
2018-11-12T07:14:54.394Z,2.32
2018-11-12T07:17:30.241Z,2.62
2018-11-12T07:20:07.905Z,2.88
2018-11-12T07:22:43.959Z,2.59
2018-11-12T07:25:27.306Z,2.76
2018-11-12T07:28:03.221Z,2.80
2018-11-12T07:30:39.091Z,3.03
2018-11-12T07:33:15.165Z,3.38
2018-11-12T07:35:51.014Z,3.40
2018-11-12T07:38:26.904Z,3.07
2018-11-12T07:41:02.759Z,3.29
2018-11-12T07:43:38.621Z,3.47
2018-11-12T07:46:14.395Z,3.77
2018-11-12T07:48:54.561Z,4.08
2018-11-12T07:51:30.561Z,4.21
2018-11-12T07:54:06.681Z,4.59
2018-11-12T07:56:42.573Z,4.67
2018-11-12T07:59:18.810Z,4.95
2018-11-12T08:01:54.792Z,5.08
2018-11-12T08:04:30.665Z,5.36
2018-11-12T08:07:07.299Z,5.54
2018-11-12T08:09:43.131Z,5.62
2018-11-12T08:12:19.127Z,5.50
2018-11-12T08:14:55.142Z,5.70
2018-11-12T08:17:31.257Z,5.99
2018-11-12T08:20:08.756Z,6.15
2018-11-12T08:22:45.639Z,6.26
2018-11-12T08:25:21.705Z,6.36
2018-11-12T08:28:00.236Z,6.44
2018-11-12T08:30:36.227Z,6.75
2018-11-12T08:33:12.696Z,6.82
2018-11-12T08:35:49.309Z,6.87
2018-11-12T08:38:25.084Z,7.06
2018-11-12T08:41:01.083Z,7.15
2018-11-12T08:43:37.005Z,7.42
2018-11-12T08:46:12.907Z,7.56
2018-11-12T08:48:48.883Z,7.43
2018-11-12T08:51:24.886Z,7.42
2018-11-12T08:54:00.864Z,7.58
2018-11-12T08:56:36.748Z,7.80
2018-11-12T08:59:12.704Z,8.00
2018-11-12T09:01:48.634Z,8.33
2018-11-12T09:04:24.537Z,8.52
2018-11-12T09:07:00.446Z,8.91
2018-11-12T09:09:36.512Z,8.90
2018-11-12T09:12:12.349Z,9.03
2018-11-12T09:14:48.091Z,9.16
2018-11-12T09:17:24.086Z,9.32
2018-11-12T09:19:59.965Z,9.52
2018-11-12T09:22:35.724Z,9.60
2018-11-12T09:25:13.943Z,9.79
2018-11-12T09:27:49.917Z,9.99
2018-11-12T09:30:27.087Z,10.10
2018-11-12T09:33:03.206Z,10.21
2018-11-12T09:35:39.078Z,10.39
2018-11-12T09:38:14.944Z,10.50
2018-11-12T09:40:50.718Z,10.52
2018-11-12T09:43:26.566Z,10.78
2018-11-12T09:46:02.438Z,10.80
2018-11-12T09:48:38.842Z,10.86
2018-11-12T09:51:15.112Z,10.98
2018-11-12T09:53:51.068Z,11.11
2018-11-12T09:56:26.901Z,11.35
2018-11-12T09:59:02.826Z,11.33
2018-11-12T10:01:39.026Z,11.48
2018-11-12T10:04:14.828Z,11.78
2018-11-12T10:06:52.480Z,12.07
2018-11-12T10:09:29.142Z,12.24
2018-11-12T10:12:05.361Z,12.24
2018-11-12T10:14:41.936Z,12.36
2018-11-12T10:17:17.955Z,12.61
2018-11-12T10:19:51.490Z,12.80
2018-11-12T10:22:27.345Z,12.81
2018-11-12T10:25:03.292Z,13.01
2018-11-12T10:27:39.091Z,13.23
2018-11-12T10:30:14.940Z,13.10
2018-11-12T10:32:50.816Z,13.21
2018-11-12T10:35:26.786Z,13.43
2018-11-12T10:38:02.700Z,13.54
2018-11-12T10:40:38.510Z,13.78
2018-11-12T10:43:14.374Z,14.05
2018-11-12T10:45:50.185Z,14.06
2018-11-12T10:48:26.189Z,14.14
2018-11-12T10:51:05.169Z,14.19
2018-11-12T10:53:38.303Z,14.36
2018-11-12T10:56:14.361Z,14.38
2018-11-12T10:58:50.329Z,14.66
2018-11-12T11:01:32.085Z,14.87
2018-11-12T11:04:13.045Z,14.94
2018-11-12T11:06:49.021Z,14.76
2018-11-12T11:09:24.900Z,14.61
2018-11-12T11:12:00.882Z,14.96
2018-11-12T11:14:36.648Z,15.23
2018-11-12T11:17:12.630Z,15.31
2018-11-12T11:19:48.395Z,15.22
2018-11-12T11:22:24.455Z,15.24
2018-11-12T11:25:00.450Z,15.23
2018-11-12T11:27:36.260Z,15.39
2018-11-12T11:30:13.728Z,15.67
2018-11-12T11:32:49.678Z,15.82
2018-11-12T11:35:25.713Z,15.85
2018-11-12T11:38:01.601Z,16.17
2018-11-12T11:40:37.509Z,16.27
2018-11-12T11:43:13.709Z,16.43
2018-11-12T11:45:49.940Z,16.43
2018-11-12T11:48:25.797Z,16.32
2018-11-12T11:51:01.581Z,16.20
2018-11-12T11:53:37.566Z,16.32
2018-11-12T11:56:13.357Z,16.48
2018-11-12T11:58:49.114Z,16.65
2018-11-12T12:01:24.981Z,16.34
2018-11-12T12:04:02.005Z,16.35
2018-11-12T12:06:37.776Z,16.43
2018-11-12T12:09:13.829Z,16.42
2018-11-12T12:11:49.793Z,16.61
2018-11-12T12:14:25.989Z,16.84
2018-11-12T12:17:01.800Z,16.92
2018-11-12T12:19:37.599Z,17.04
2018-11-12T12:22:13.381Z,17.11
2018-11-12T12:24:49.325Z,17.36
2018-11-12T12:27:25.138Z,17.43
2018-11-12T12:30:01.003Z,17.61
2018-11-12T12:32:36.850Z,17.43
2018-11-12T12:36:37.272Z,17.55
2018-11-12T12:39:13.220Z,18.05
2018-11-12T12:41:49.216Z,18.34
2018-11-12T12:44:24.877Z,18.68
2018-11-12T12:47:01.084Z,19.02
2018-11-12T12:49:37.003Z,19.48
2018-11-12T12:52:13.016Z,19.85
2018-11-12T12:54:48.850Z,20.42
2018-11-12T12:57:24.680Z,21.30
2018-11-12T13:00:00.473Z,21.49
2018-11-12T13:02:36.527Z,21.67
2018-11-12T13:05:12.384Z,22.12
2018-11-12T13:07:48.325Z,22.48
2018-11-12T13:10:24.926Z,22.53
2018-11-12T13:13:00.849Z,22.79
2018-11-12T13:15:36.599Z,22.99
2018-11-12T13:19:36.992Z,23.14
2018-11-12T13:22:13.941Z,23.54
2018-11-12T13:24:50.032Z,23.21
2018-11-12T13:27:25.829Z,22.78
2018-11-12T13:30:01.837Z,23.09
2018-11-12T13:32:38.485Z,23.74
2018-11-12T13:35:15.548Z,24.17
2018-11-12T13:37:51.436Z,23.48
2018-11-12T13:40:27.959Z,22.35
2018-11-12T13:43:03.858Z,20.69
2018-11-12T13:45:39.810Z,19.21
2018-11-12T13:48:15.645Z,18.07
2018-11-12T13:50:51.457Z,17.14
2018-11-12T13:53:27.359Z,16.44
2018-11-12T13:56:03.164Z,15.87
2018-11-12T13:58:38.839Z,15.51
2018-11-12T14:01:14.883Z,15.15
2018-11-12T14:03:50.567Z,14.87
2018-11-12T14:06:26.519Z,14.56
2018-11-12T14:09:02.287Z,14.38
2018-11-12T14:11:38.266Z,14.13
2018-11-12T14:14:14.153Z,14.01
2018-11-12T14:16:50.276Z,13.76
2018-11-12T14:19:26.007Z,13.48
2018-11-12T14:22:01.712Z,13.09
2018-11-12T14:24:37.427Z,12.86
2018-11-12T14:27:14.006Z,12.66
2018-11-12T14:29:50.631Z,12.77
2018-11-12T14:32:26.519Z,12.73
2018-11-12T14:35:02.372Z,12.54
2018-11-12T14:37:38.232Z,12.38
2018-11-12T14:40:15.157Z,12.21
2018-11-12T14:42:51.098Z,12.07
2018-11-12T14:45:26.964Z,12.00
2018-11-12T14:48:03.099Z,11.68
2018-11-12T14:50:39.117Z,11.36
2018-11-12T14:53:15.124Z,11.17
2018-11-12T14:55:50.901Z,10.92
2018-11-12T14:58:21.675Z,10.77
2018-11-12T15:00:52.439Z,10.65
2018-11-12T15:03:23.331Z,10.60
2018-11-12T15:05:54.137Z,10.48
2018-11-12T15:08:24.976Z,10.19
2018-11-12T15:10:55.825Z,10.03
2018-11-12T15:13:26.657Z,9.87
2018-11-12T15:15:57.522Z,9.91
2018-11-12T15:18:28.396Z,9.65
2018-11-12T15:20:59.241Z,9.30
2018-11-12T15:23:30.309Z,9.28
2018-11-12T15:26:01.137Z,9.37
2018-11-12T15:28:32.030Z,9.36
2018-11-12T15:31:02.943Z,9.54
2018-11-12T15:33:33.836Z,9.63
2018-11-12T15:36:04.637Z,9.68
2018-11-12T15:38:35.462Z,9.67
2018-11-12T15:41:06.880Z,9.45
2018-11-12T15:43:37.734Z,9.36
2018-11-12T15:46:08.545Z,9.21
2018-11-12T15:48:39.853Z,9.04
2018-11-12T15:51:10.687Z,8.64
2018-11-12T15:53:41.530Z,8.41
2018-11-12T15:56:12.301Z,8.35
2018-11-12T15:58:43.207Z,8.35
2018-11-12T16:01:13.976Z,8.23
2018-11-12T16:03:44.902Z,8.05
2018-11-12T16:06:15.737Z,7.86
2018-11-12T16:08:46.802Z,7.32
2018-11-12T16:11:17.568Z,6.92
2018-11-12T16:13:48.438Z,6.76
2018-11-12T16:16:22.634Z,6.62
2018-11-12T16:18:53.597Z,6.68
2018-11-12T16:21:24.472Z,6.77
2018-11-12T16:23:55.325Z,6.77
2018-11-12T16:26:26.169Z,6.59
2018-11-12T16:29:00.621Z,6.57
2018-11-12T16:31:31.497Z,6.21
2018-11-12T16:34:07.735Z,6.13
2018-11-12T16:36:38.542Z,6.05
2018-11-12T16:39:10.981Z,5.60
2018-11-12T16:41:41.874Z,5.42
2018-11-12T16:44:12.735Z,5.51
2018-11-12T16:46:43.562Z,5.26
2018-11-12T16:49:21.233Z,5.03
2018-11-12T16:51:52.055Z,4.96
2018-11-12T16:54:22.917Z,4.85
2018-11-12T16:56:53.836Z,4.86
2018-11-12T16:59:24.630Z,4.94
2018-11-12T17:01:55.384Z,4.85
2018-11-12T17:04:26.547Z,4.74
2018-11-12T17:06:57.328Z,4.48
2018-11-12T17:09:28.173Z,4.46
2018-11-12T17:12:01.744Z,4.43
2018-11-12T17:14:32.878Z,4.31
2018-11-12T17:17:03.980Z,4.51
2018-11-12T17:19:34.906Z,4.73
2018-11-12T17:22:05.768Z,4.53
2018-11-12T17:24:37.026Z,4.52
2018-11-12T17:27:07.780Z,4.28
2018-11-12T17:29:38.634Z,4.01
2018-11-12T17:32:10.156Z,3.73
2018-11-12T17:34:41.076Z,3.95
2018-11-12T17:37:12.485Z,3.77
2018-11-12T17:39:43.399Z,3.63
2018-11-12T17:42:14.270Z,3.73
2018-11-12T17:44:45.108Z,3.67
2018-11-12T17:47:15.977Z,3.56
2018-11-12T17:49:46.882Z,3.60
2018-11-12T17:52:17.721Z,3.61
2018-11-12T17:54:48.572Z,3.79
2018-11-12T17:57:19.421Z,3.60
2018-11-12T17:59:50.490Z,3.72
2018-11-12T18:02:21.334Z,3.93
2018-11-12T18:04:52.212Z,3.58
2018-11-12T18:07:23.129Z,3.39
2018-11-12T18:09:54.061Z,2.97
2018-11-12T18:12:24.877Z,2.90
2018-11-12T18:14:55.728Z,2.87
2018-11-12T18:17:26.489Z,3.13
2018-11-12T18:19:57.370Z,3.14
2018-11-12T18:22:28.205Z,3.29
2018-11-12T18:24:59.037Z,3.17
2018-11-12T18:27:29.820Z,3.29
2018-11-12T18:30:00.907Z,3.36
2018-11-12T18:32:31.877Z,3.30
2018-11-12T18:35:02.926Z,3.34
2018-11-12T18:37:33.744Z,3.29
2018-11-12T18:40:05.035Z,3.04
2018-11-12T18:42:35.931Z,3.29
2018-11-12T18:45:09.262Z,3.44
2018-11-12T18:47:40.503Z,3.47
2018-11-12T18:50:14.376Z,3.53
2018-11-12T18:52:45.590Z,3.58
2018-11-12T18:55:16.636Z,3.34
2018-11-12T18:57:48.346Z,3.17
2018-11-12T19:00:23.422Z,2.68
2018-11-12T19:02:54.494Z,2.16
2018-11-12T19:05:29.612Z,1.97
2018-11-12T19:08:03.409Z,1.93
2018-11-12T19:10:35.147Z,2.02
2018-11-12T19:13:06.195Z,2.28
2018-11-12T19:15:38.223Z,2.45
2018-11-12T19:18:12.297Z,2.39
2018-11-12T19:20:43.210Z,2.42
2018-11-12T19:23:14.050Z,2.00
2018-11-12T19:25:46.198Z,1.86
2018-11-12T19:28:21.742Z,1.57
2018-11-12T19:30:53.952Z,1.46
2018-11-12T19:33:24.746Z,1.53
2018-11-12T19:35:55.691Z,1.45
2018-11-12T19:38:26.552Z,1.59
2018-11-12T19:40:57.656Z,1.95
2018-11-12T19:43:29.460Z,2.03
2018-11-12T19:46:00.322Z,1.64
2018-11-12T19:48:31.213Z,1.89
2018-11-12T19:51:02.146Z,2.09
2018-11-12T19:53:33.279Z,2.20
2018-11-12T19:56:04.144Z,2.35
2018-11-12T19:58:35.617Z,2.44
2018-11-12T20:01:06.588Z,2.30
2018-11-12T20:03:37.453Z,2.31
2018-11-12T20:06:08.544Z,2.39
2018-11-12T20:08:50.033Z,2.31
2018-11-12T20:11:20.908Z,2.16
2018-11-12T20:13:51.716Z,2.06
2018-11-12T20:16:22.609Z,1.84
2018-11-12T20:18:53.391Z,1.26
2018-11-12T20:21:24.620Z,0.94
2018-11-12T20:23:55.412Z,0.59
2018-11-12T20:26:26.327Z,0.39
2018-11-12T20:28:57.117Z,0.16
2018-11-12T20:31:27.951Z,0.49
2018-11-12T20:33:58.795Z,0.57
2018-11-12T20:36:31.213Z,0.76
2018-11-12T20:39:02.600Z,0.73
2018-11-12T20:41:35.690Z,1.07
2018-11-12T20:44:08.888Z,1.28
2018-11-12T20:46:39.831Z,1.28
2018-11-12T20:49:10.767Z,0.97
2018-11-12T20:51:41.721Z,0.68
2018-11-12T20:54:12.544Z,0.74
2018-11-12T20:56:43.396Z,0.58
2018-11-12T20:59:19.179Z,0.66
2018-11-12T21:01:55.273Z,0.79
2018-11-12T21:04:31.287Z,0.71
2018-11-12T21:07:07.240Z,0.88
2018-11-12T21:09:43.130Z,1.09
2018-11-12T21:13:43.526Z,1.07
2018-11-12T21:16:19.534Z,1.25
2018-11-12T21:18:55.186Z,1.31
2018-11-12T21:21:31.053Z,1.23
2018-11-12T21:24:07.096Z,0.86
2018-11-12T21:26:42.845Z,0.53
2018-11-12T21:29:18.572Z,-0.06
2018-11-12T21:31:54.332Z,-0.49
2018-11-12T21:34:30.351Z,-0.42
2018-11-12T21:37:06.329Z,-0.47
2018-11-12T21:39:42.442Z,0.09
2018-11-12T21:42:18.347Z,0.02
2018-11-12T21:44:54.375Z,0.14
2018-11-12T21:47:30.104Z,0.03
2018-11-12T21:50:08.050Z,0.43
2018-11-12T21:52:43.847Z,0.50
2018-11-12T21:55:19.873Z,0.07
2018-11-12T21:57:55.829Z,-0.05
2018-11-12T22:00:31.963Z,-0.29
2018-11-12T22:03:07.938Z,-0.20
2018-11-12T22:05:43.794Z,-0.04
2018-11-12T22:08:19.676Z,0.23
2018-11-12T22:10:55.913Z,0.27
2018-11-12T22:13:31.837Z,0.18
2018-11-12T22:16:08.225Z,-0.10
2018-11-12T22:18:44.175Z,-0.21
2018-11-12T22:21:20.054Z,0.05
2018-11-12T22:23:55.914Z,0.12
2018-11-12T22:26:31.838Z,-0.09
2018-11-12T22:29:07.793Z,-0.56
2018-11-12T22:31:43.846Z,-0.82
2018-11-12T22:34:19.622Z,-0.56
2018-11-12T22:36:55.677Z,-0.26
2018-11-12T22:39:31.535Z,-0.10
2018-11-12T22:42:07.357Z,0.13
2018-11-12T22:44:43.250Z,-0.30
2018-11-12T22:47:19.214Z,-0.15
2018-11-12T22:49:55.081Z,-0.09
2018-11-12T22:52:30.954Z,0.19
2018-11-12T22:55:06.978Z,0.17
2018-11-12T22:57:42.860Z,-0.01
2018-11-12T23:00:27.156Z,-0.10
2018-11-12T23:03:02.964Z,-0.80
2018-11-12T23:05:38.779Z,-1.28
2018-11-12T23:08:14.672Z,-1.57
2018-11-12T23:10:50.484Z,-1.47
2018-11-12T23:13:26.328Z,-1.16
2018-11-12T23:16:02.646Z,-0.93
2018-11-12T23:18:38.552Z,-0.75
2018-11-12T23:21:14.421Z,-0.68
2018-11-12T23:23:50.372Z,-0.56
2018-11-12T23:26:26.205Z,-0.54
2018-11-12T23:29:02.103Z,-0.32
2018-11-12T23:31:37.953Z,-0.33
2018-11-12T23:34:13.844Z,-0.43
2018-11-12T23:36:49.789Z,-0.71
2018-11-12T23:39:25.757Z,-0.83
2018-11-12T23:42:01.502Z,-0.74
2018-11-12T23:44:37.362Z,-1.20
2018-11-12T23:47:13.292Z,-0.77
2018-11-12T23:49:49.181Z,-0.94
2018-11-12T23:52:24.977Z,-0.69
2018-11-12T23:55:00.583Z,-0.49
2018-11-12T23:57:36.297Z,-0.62
